Time;durP1;ratioP1;P1;durP2;ratioP2;P2;SDS_P1;SDS_P2;PMS_P1;PMS_P2;Temp;Humidity;BMP_temperature;BMP_pressure;BME280_temperature;BME280_humidity;BME280_pressure;Samples;Min_cycle;Max_cycle;Signal;HPM_P1;HPM_P2
2022/07/01 00:00:55;;;;;;;;;;;;;;;24.20;62.04;99119.94;5034699;28;20007;-67
2022/07/01 00:03:23;;;;;;;;;;;;;;;24.29;61.83;99124.56;5034664;28;19921;-67
2022/07/01 00:05:53;;;;;;;;;;;;;;;24.38;61.31;99123.94;5034464;28;19921;-67
2022/07/01 00:08:22;;;;;;;;;;;;;;;24.44;61.04;99124.41;5033899;28;19986;-67
2022/07/01 00:10:50;;;;;;;;;;;;;;;24.52;60.76;99116.06;5034361;28;19943;-67
2022/07/01 00:13:20;;;;;;;;;;;;;;;24.56;60.54;99123.59;5034841;28;19956;-67
2022/07/01 00:15:48;;;;;;;;;;;;;;;24.58;60.24;99120.88;5034231;28;20346;-69
2022/07/01 00:18:17;;;;;;;;;;;;;;;24.64;60.37;99126.50;5030675;28;19928;-67
2022/07/01 00:20:45;;;;;;;;;;;;;;;24.63;60.57;99129.22;5033344;28;19948;-67
2022/07/01 00:23:16;;;;;;;;;;;;;;;24.62;60.47;99132.78;5034691;28;19960;-67
2022/07/01 00:25:45;;;;;;;;;;;;;;;24.61;60.28;99131.97;5032045;28;19920;-67
2022/07/01 00:28:14;;;;;;;;;;;;;;;24.60;60.23;99124.22;5034034;28;19932;-67
2022/07/01 00:30:42;;;;;;;;;;;;;;;24.59;60.12;99122.56;5033289;28;19921;-68
2022/07/01 00:33:11;;;;;;;;;;;;;;;24.62;60.10;99122.31;5032989;28;19975;-67
2022/07/01 00:35:40;;;;;;;;;;;;;;;24.63;60.12;99121.41;5031827;28;20586;-67
2022/07/01 00:38:08;;;;;;;;;;;;;;;24.63;60.09;99124.84;5032057;28;19921;-67
2022/07/01 00:40:38;;;;;;;;;;;;;;;24.59;60.51;99131.19;5031244;28;19967;-67
2022/07/01 00:43:07;;;;;;;;;;;;;;;24.54;61.03;99140.28;5035517;28;20008;-67
2022/07/01 00:45:35;;;;;;;;;;;;;;;24.48;61.36;99138.91;5035557;28;19928;-67
2022/07/01 00:48:06;;;;;;;;;;;;;;;24.46;61.11;99137.34;5032188;28;19921;-67
2022/07/01 00:50:35;;;;;;;;;;;;;;;24.41;61.15;99137.66;5032469;28;19927;-67
2022/07/01 00:53:05;;;;;;;;;;;;;;;24.38;61.33;99139.59;5034716;28;19963;-68
2022/07/01 00:55:34;;;;;;;;;;;;;;;24.40;61.32;99142.97;5032334;28;19982;-67
2022/07/01 00:58:04;;;;;;;;;;;;;;;24.40;61.33;99138.56;5033483;28;19921;-67
2022/07/01 01:00:33;;;;;;;;;;;;;;;24.42;61.53;99134.13;5032935;28;20437;-67
2022/07/01 01:03:02;;;;;;;;;;;;;;;24.44;61.28;99145.28;5034121;28;20354;-67
2022/07/01 01:05:30;;;;;;;;;;;;;;;24.44;61.11;99145.28;5029588;28;19925;-67
2022/07/01 01:07:59;;;;;;;;;;;;;;;24.44;61.06;99144.44;5031822;28;19921;-67
2022/07/01 01:10:28;;;;;;;;;;;;;;;24.46;60.97;99158.22;5027852;28;19927;-67
2022/07/01 01:12:57;;;;;;;;;;;;;;;24.46;60.68;99153.84;5014952;28;20356;-67
2022/07/01 01:15:28;;;;;;;;;;;;;;;24.48;60.91;99162.41;5023692;28;19921;-67
2022/07/01 01:17:56;;;;;;;;;;;;;;;24.45;60.81;99154.75;5033291;28;20428;-67
2022/07/01 01:20:26;;;;;;;;;;;;;;;24.47;60.94;99157.28;5032854;28;19921;-70
2022/07/01 01:22:56;;;;;;;;;;;;;;;24.46;60.87;99153.00;5015196;28;19928;-67
2022/07/01 01:25:25;;;;;;;;;;;;;;;24.41;61.30;99155.06;5024464;28;19921;-67
2022/07/01 01:27:53;;;;;;;;;;;;;;;24.43;61.53;99155.81;5033529;28;19990;-67
2022/07/01 01:30:22;;;;;;;;;;;;;;;24.35;61.65;99160.69;5030732;28;19921;-67
2022/07/01 01:32:50;;;;;;;;;;;;;;;24.22;62.23;99154.59;5031744;28;19952;-67
2022/07/01 01:35:19;;;;;;;;;;;;;;;24.21;62.26;99150.34;5033384;28;19968;-67
2022/07/01 01:37:48;;;;;;;;;;;;;;;24.09;62.82;99143.28;5033398;28;19927;-67
2022/07/01 01:40:18;;;;;;;;;;;;;;;24.00;62.84;99145.50;5031663;28;19927;-67
2022/07/01 01:42:47;;;;;;;;;;;;;;;24.02;63.06;99139.38;5034606;28;20288;-66
2022/07/01 01:45:15;;;;;;;;;;;;;;;23.90;63.41;99148.78;5031414;28;20371;-67
2022/07/01 01:47:44;;;;;;;;;;;;;;;23.91;63.28;99146.09;5034164;28;19921;-67
2022/07/01 01:50:13;;;;;;;;;;;;;;;23.96;63.10;99143.22;5031475;28;19928;-67
2022/07/01 01:52:43;;;;;;;;;;;;;;;23.97;62.92;99140.50;5034383;28;19980;-67
2022/07/01 01:55:13;;;;;;;;;;;;;;;23.95;63.24;99131.09;5033254;28;19933;-67
2022/07/01 01:57:43;;;;;;;;;;;;;;;23.84;63.64;99144.81;5034317;28;20366;-67
2022/07/01 02:00:12;;;;;;;;;;;;;;;23.81;63.44;99139.81;5032071;28;20015;-67
2022/07/01 02:02:41;;;;;;;;;;;;;;;23.83;63.42;99148.34;5034594;28;20274;-67
2022/07/01 02:05:11;;;;;;;;;;;;;;;23.75;63.71;99148.03;5031937;28;20366;-67
2022/07/01 02:07:40;;;;;;;;;;;;;;;23.78;63.60;99149.56;5033945;28;19921;-66
2022/07/01 02:10:09;;;;;;;;;;;;;;;23.77;63.57;99142.69;5031065;28;19956;-67
2022/07/01 02:12:38;;;;;;;;;;;;;;;23.77;63.42;99143.53;5033909;28;19963;-67
2022/07/01 02:15:09;;;;;;;;;;;;;;;23.80;63.31;99147.72;5032394;28;20388;-67
2022/07/01 02:17:37;;;;;;;;;;;;;;;23.85;63.48;99141.28;5033866;28;19921;-67
2022/07/01 02:20:06;;;;;;;;;;;;;;;23.85;63.40;99143.88;5031637;28;20278;-67
2022/07/01 02:22:35;;;;;;;;;;;;;;;23.76;63.88;99143.63;5032983;28;19921;-67
2022/07/01 02:25:04;;;;;;;;;;;;;;;23.72;63.94;99145.59;5031032;28;20001;-67
2022/07/01 02:27:33;;;;;;;;;;;;;;;23.68;63.88;99146.69;5034773;28;19967;-67
2022/07/01 02:30:02;;;;;;;;;;;;;;;23.72;63.73;99150.81;5036799;28;19932;-67
2022/07/01 02:32:32;;;;;;;;;;;;;;;23.69;63.19;99156.22;5038008;28;20267;-67
2022/07/01 02:35:01;;;;;;;;;;;;;;;23.74;62.90;99161.97;5037027;28;20367;-67
2022/07/01 02:37:29;;;;;;;;;;;;;;;23.71;62.93;99159.56;5037610;28;19928;-67
2022/07/01 02:39:58;;;;;;;;;;;;;;;23.62;63.14;99159.28;5033853;28;19944;-67
2022/07/01 02:42:27;;;;;;;;;;;;;;;23.49;63.57;99164.41;5037840;28;19944;-67
2022/07/01 02:44:55;;;;;;;;;;;;;;;23.36;64.15;99163.50;5035883;28;19964;-67
2022/07/01 02:47:24;;;;;;;;;;;;;;;23.19;64.68;99166.25;5036415;28;19921;-67
2022/07/01 02:49:57;;;;;;;;;;;;;;;23.13;64.76;99161.44;5035893;28;20446;-67
2022/07/01 02:52:28;;;;;;;;;;;;;;;23.01;64.89;99167.38;5035266;28;20011;-67
2022/07/01 02:54:57;;;;;;;;;;;;;;;23.00;64.90;99165.69;5034734;28;20399;-67
2022/07/01 02:57:25;;;;;;;;;;;;;;;22.89;64.93;99168.09;5036661;28;19964;-67
2022/07/01 02:59:54;;;;;;;;;;;;;;;22.88;65.21;99172.47;5034490;28;19921;-67
2022/07/01 03:02:23;;;;;;;;;;;;;;;22.75;65.21;99165.47;5037479;28;19925;-66
2022/07/01 03:04:53;;;;;;;;;;;;;;;22.77;65.33;99176.63;5036180;28;20377;-67
2022/07/01 03:07:23;;;;;;;;;;;;;;;22.80;65.33;99179.03;5035075;28;19967;-67
2022/07/01 03:09:51;;;;;;;;;;;;;;;22.79;65.33;99182.56;5034918;28;19927;-67
2022/07/01 03:12:27;;;;;;;;;;;;;;;22.78;65.44;99192.13;5036384;28;19948;-67
2022/07/01 03:14:56;;;;;;;;;;;;;;;22.75;65.75;99192.31;5036695;28;20000;-67
2022/07/01 03:17:25;;;;;;;;;;;;;;;22.68;66.20;99194.44;5036835;28;19971;-67
2022/07/01 03:19:54;;;;;;;;;;;;;;;22.68;66.55;99191.84;5034093;28;20000;-67
2022/07/01 03:22:26;;;;;;;;;;;;;;;22.75;66.92;99181.09;5036825;28;19931;-67
2022/07/01 03:24:55;;;;;;;;;;;;;;;22.90;66.95;99180.16;5033420;28;19921;-67
2022/07/01 03:27:24;;;;;;;;;;;;;;;22.98;67.02;99185.78;5035085;28;20012;-67
2022/07/01 03:29:53;;;;;;;;;;;;;;;23.05;67.03;99184.47;5033180;28;19925;-67
2022/07/01 03:32:22;;;;;;;;;;;;;;;23.16;66.82;99192.47;5018489;28;19928;-67
2022/07/01 03:34:51;;;;;;;;;;;;;;;23.12;67.28;99188.38;5036903;28;20283;-66
2022/07/01 03:37:20;;;;;;;;;;;;;;;23.13;67.66;99187.47;5035568;28;19921;-67
2022/07/01 03:39:50;;;;;;;;;;;;;;;23.17;67.36;99204.59;5031405;28;20024;-67
2022/07/01 03:42:20;;;;;;;;;;;;;;;23.26;67.30;99214.44;5033940;28;20027;-67
2022/07/01 03:44:48;;;;;;;;;;;;;;;23.24;67.47;99221.50;5015318;28;19967;-67
2022/07/01 03:47:17;;;;;;;;;;;;;;;23.21;67.73;99224.28;5030075;28;20391;-67
2022/07/01 03:49:45;;;;;;;;;;;;;;;23.27;67.67;99226.53;5036498;28;19943;-67
2022/07/01 03:52:14;;;;;;;;;;;;;;;23.36;67.42;99226.03;5035008;28;20282;-67
2022/07/01 03:54:41;;;;;;;;;;;;;;;23.44;67.21;99234.22;5034718;28;19921;-67
2022/07/01 03:57:11;;;;;;;;;;;;;;;23.51;67.10;99230.31;5032867;28;19921;-67
2022/07/01 03:59:41;;;;;;;;;;;;;;;23.60;66.76;99232.34;5036430;28;20420;-67
2022/07/01 04:02:09;;;;;;;;;;;;;;;23.67;66.76;99220.63;5035034;28;19928;-67
2022/07/01 04:04:38;;;;;;;;;;;;;;;23.74;66.11;99210.66;5034823;28;19921;-67
2022/07/01 04:07:09;;;;;;;;;;;;;;;23.81;65.76;99201.50;5031527;28;19920;-67
2022/07/01 04:09:38;;;;;;;;;;;;;;;23.89;65.22;99209.72;5033717;28;20442;-68
2022/07/01 04:12:08;;;;;;;;;;;;;;;23.86;65.28;99228.97;5034916;28;19979;-67
2022/07/01 04:14:38;;;;;;;;;;;;;;;23.88;65.51;99228.88;5035772;28;20354;-67
2022/07/01 04:17:07;;;;;;;;;;;;;;;23.92;65.24;99225.97;5032140;28;19920;-67
2022/07/01 04:19:36;;;;;;;;;;;;;;;23.99;64.71;99229.88;5035734;28;20000;-67
2022/07/01 04:24:43;;;;;;;;;;;;;;;24.20;62.79;99225.13;5035128;28;19921;-67
2022/07/01 04:27:12;;;;;;;;;;;;;;;24.36;62.10;99227.59;5034651;28;19921;-67
2022/07/01 04:29:42;;;;;;;;;;;;;;;24.48;61.37;99226.78;5035793;28;20448;-67
2022/07/01 04:32:12;;;;;;;;;;;;;;;24.53;61.19;99232.56;5035605;28;19921;-67
2022/07/01 04:34:41;;;;;;;;;;;;;;;24.63;61.14;99233.63;5032357;28;19921;-67
2022/07/01 04:37:11;;;;;;;;;;;;;;;24.78;60.89;99227.47;5035437;28;20015;-67
2022/07/01 04:39:40;;;;;;;;;;;;;;;24.88;59.95;99228.53;5031050;28;20003;-67
2022/07/01 04:42:08;;;;;;;;;;;;;;;25.03;59.46;99230.09;5035246;28;20412;-67
2022/07/01 04:44:37;;;;;;;;;;;;;;;25.13;58.70;99223.31;5034264;28;20378;-67
2022/07/01 04:47:13;;;;;;;;;;;;;;;25.26;58.17;99221.56;5035547;28;19987;-67
2022/07/01 04:49:41;;;;;;;;;;;;;;;25.36;57.82;99226.16;5032950;28;19967;-67
2022/07/01 04:52:10;;;;;;;;;;;;;;;25.47;57.29;99223.66;5031084;28;19927;-67
2022/07/01 04:54:38;;;;;;;;;;;;;;;25.58;57.26;99234.25;5031547;28;19921;-67
2022/07/01 04:57:07;;;;;;;;;;;;;;;25.72;57.13;99226.25;5034330;28;19943;-67
2022/07/01 04:59:36;;;;;;;;;;;;;;;25.83;56.50;99218.50;5034214;28;19956;-67
2022/07/01 05:02:04;;;;;;;;;;;;;;;25.94;56.24;99215.94;5034314;28;19924;-68
2022/07/01 05:04:41;;;;;;;;;;;;;;;26.00;56.13;99220.75;5020053;28;19981;-67
2022/07/01 05:07:27;;;;;;;;;;;;;;;26.09;56.01;99225.31;5034148;28;19921;-67
2022/07/01 05:09:58;;;;;;;;;;;;;;;26.21;55.90;99229.72;5031867;28;19924;-67
2022/07/01 05:12:27;;;;;;;;;;;;;;;26.34;56.19;99230.50;5032015;28;19979;-67
2022/07/01 05:14:56;;;;;;;;;;;;;;;26.38;56.10;99231.94;5033070;28;19920;-67
2022/07/01 05:21:55;;;;;;;;;;;;;;;26.53;56.14;99230.84;5031569;28;20385;-67
2022/07/01 05:22:54;;;;;;;;;;;;;;;26.83;55.61;99242.63;5019179;28;19921;-68
2022/07/01 05:25:22;;;;;;;;;;;;;;;26.89;54.97;99248.28;5031498;28;19957;-67
2022/07/01 05:27:51;;;;;;;;;;;;;;;26.88;54.70;99245.75;5030890;28;20015;-67
2022/07/01 05:30:19;;;;;;;;;;;;;;;26.89;54.81;99239.56;5030042;28;19925;-67
2022/07/01 05:32:48;;;;;;;;;;;;;;;26.99;54.81;99237.94;5033301;28;19921;-68
2022/07/01 05:35:18;;;;;;;;;;;;;;;27.11;54.96;99237.84;5031695;28;19921;-68
2022/07/01 05:37:47;;;;;;;;;;;;;;;27.16;54.86;99229.66;5032923;28;20020;-68
2022/07/01 05:40:15;;;;;;;;;;;;;;;27.32;54.67;99240.63;5032307;28;19968;-68
2022/07/01 05:42:44;;;;;;;;;;;;;;;27.48;55.04;99241.16;5031145;28;19921;-69
2022/07/01 05:45:12;;;;;;;;;;;;;;;27.57;54.55;99245.69;5033831;28;20032;-67
2022/07/01 05:47:41;;;;;;;;;;;;;;;27.62;54.58;99242.69;5030913;28;19921;-68
2022/07/01 05:50:10;;;;;;;;;;;;;;;27.85;54.71;99241.75;5031901;28;19921;-68
2022/07/01 05:52:40;;;;;;;;;;;;;;;27.98;54.57;99249.50;5033079;28;19925;-68
2022/07/01 05:55:09;;;;;;;;;;;;;;;28.09;53.94;99252.97;5032073;28;19972;-68
2022/07/01 05:57:38;;;;;;;;;;;;;;;28.25;53.47;99249.94;5030695;28;19928;-68
2022/07/01 06:00:09;;;;;;;;;;;;;;;28.37;53.48;99257.69;5031904;28;19952;-68
2022/07/01 06:02:40;;;;;;;;;;;;;;;28.44;53.75;99250.13;5028030;28;20371;-68
2022/07/01 06:05:09;;;;;;;;;;;;;;;28.46;53.23;99245.59;5029822;28;19927;-68
2022/07/01 06:07:38;;;;;;;;;;;;;;;28.53;53.39;99246.75;5033365;28;19975;-68
2022/07/01 06:10:10;;;;;;;;;;;;;;;28.61;53.10;99249.63;5034280;28;19983;-67
2022/07/01 06:12:39;;;;;;;;;;;;;;;28.73;53.31;99243.38;5033632;28;19963;-67
2022/07/01 06:15:08;;;;;;;;;;;;;;;28.86;53.01;99248.47;5033325;28;19921;-68
2022/07/01 06:17:37;;;;;;;;;;;;;;;29.01;52.64;99252.47;5033387;28;19925;-67
2022/07/01 06:20:09;;;;;;;;;;;;;;;29.08;52.66;99257.06;5033921;28;19968;-68
2022/07/01 06:22:37;;;;;;;;;;;;;;;29.20;52.50;99242.09;5026884;28;19928;-70
2022/07/01 06:25:07;;;;;;;;;;;;;;;29.31;52.39;99244.66;5016591;28;19958;-68
2022/07/01 06:27:40;;;;;;;;;;;;;;;29.42;52.10;99241.13;5029102;28;19924;-68
2022/07/01 06:30:09;;;;;;;;;;;;;;;29.57;52.49;99245.06;5032687;28;19943;-67
2022/07/01 06:32:38;;;;;;;;;;;;;;;29.63;52.00;99247.19;5032462;28;19928;-68
2022/07/01 06:35:07;;;;;;;;;;;;;;;29.63;51.57;99249.81;5033002;28;19929;-68
2022/07/01 06:37:36;;;;;;;;;;;;;;;29.69;51.85;99251.91;5031609;28;19924;-68
2022/07/01 06:40:05;;;;;;;;;;;;;;;29.79;51.74;99260.69;5033220;28;20547;-68
2022/07/01 06:42:34;;;;;;;;;;;;;;;29.90;51.60;99257.97;5016131;28;20310;-67
2022/07/01 06:45:05;;;;;;;;;;;;;;;29.99;51.19;99261.59;5032158;28;20021;-68
2022/07/01 06:47:33;;;;;;;;;;;;;;;29.95;51.07;99266.28;5033711;28;20291;-67
2022/07/01 06:50:02;;;;;;;;;;;;;;;30.02;51.34;99262.16;5026725;28;19921;-68
2022/07/01 06:52:32;;;;;;;;;;;;;;;30.13;51.50;99259.44;5033778;28;19928;-67
2022/07/01 06:55:00;;;;;;;;;;;;;;;29.99;51.39;99265.09;5033778;28;19960;-67
2022/07/01 06:57:29;;;;;;;;;;;;;;;29.94;51.33;99259.38;5033785;28;19921;-67
2022/07/01 06:59:57;;;;;;;;;;;;;;;30.12;51.68;99257.75;5033379;28;20422;-68
2022/07/01 07:02:27;;;;;;;;;;;;;;;30.28;51.65;99258.06;5033344;28;20368;-67
2022/07/01 07:04:58;;;;;;;;;;;;;;;30.41;52.34;99263.13;5033728;28;19925;-67
2022/07/01 07:07:30;;;;;;;;;;;;;;;30.52;51.40;99266.47;5033446;28;19921;-68
2022/07/01 07:09:58;;;;;;;;;;;;;;;30.60;50.93;99265.78;5033353;28;19921;-67
2022/07/01 07:12:27;;;;;;;;;;;;;;;30.57;50.55;99262.59;5033258;28;19968;-67
2022/07/01 07:14:55;;;;;;;;;;;;;;;30.69;50.80;99261.50;5036134;28;19921;-67
2022/07/01 07:17:24;;;;;;;;;;;;;;;30.77;50.67;99256.34;5036866;28;20441;-67
2022/07/01 07:19:55;;;;;;;;;;;;;;;30.91;50.40;99253.31;5036849;28;20418;-67
2022/07/01 07:22:24;;;;;;;;;;;;;;;30.96;49.82;99259.00;5036854;28;19970;-67
2022/07/01 07:24:53;;;;;;;;;;;;;;;31.14;49.56;99262.59;5037100;28;19975;-67
2022/07/01 07:27:22;;;;;;;;;;;;;;;31.06;49.21;99254.56;5035946;28;19921;-68
2022/07/01 07:29:50;;;;;;;;;;;;;;;30.99;49.03;99258.72;5036431;28;19927;-66
2022/07/01 07:32:19;;;;;;;;;;;;;;;30.99;49.24;99261.38;5031387;28;20389;-68
2022/07/01 07:34:47;;;;;;;;;;;;;;;30.91;48.67;99258.59;5036445;28;19924;-66
2022/07/01 07:37:18;;;;;;;;;;;;;;;31.03;49.52;99257.47;5036460;28;20371;-66
2022/07/01 07:39:46;;;;;;;;;;;;;;;31.14;49.04;99258.16;5036732;28;19975;-67
2022/07/01 07:42:15;;;;;;;;;;;;;;;31.25;48.67;99258.97;5036335;28;20461;-67
2022/07/01 07:44:43;;;;;;;;;;;;;;;31.29;48.46;99255.91;5036469;28;19921;-66
2022/07/01 07:47:12;;;;;;;;;;;;;;;31.28;48.52;99254.25;5036351;28;19959;-66
2022/07/01 07:49:40;;;;;;;;;;;;;;;31.46;49.33;99252.56;5036350;28;19927;-66
2022/07/01 07:52:09;;;;;;;;;;;;;;;31.58;48.70;99256.69;5036231;28;19927;-66
2022/07/01 07:54:39;;;;;;;;;;;;;;;31.63;48.43;99259.72;5036148;28;19924;-66
2022/07/01 07:57:09;;;;;;;;;;;;;;;31.69;47.92;99253.88;5024764;28;19999;-67
2022/07/01 07:59:37;;;;;;;;;;;;;;;31.77;47.96;99251.31;5036104;28;19949;-66
2022/07/01 08:02:06;;;;;;;;;;;;;;;31.88;47.30;99254.75;5035955;28;21064;-67
2022/07/01 08:04:34;;;;;;;;;;;;;;;31.86;47.65;99254.06;5011887;28;19922;-67
2022/07/01 08:07:03;;;;;;;;;;;;;;;32.04;47.42;99252.34;5026282;28;19955;-67
2022/07/01 08:09:34;;;;;;;;;;;;;;;32.06;47.26;99251.22;5034253;28;19948;-68
2022/07/01 08:12:04;;;;;;;;;;;;;;;32.20;46.78;99252.53;5035574;28;19921;-68
2022/07/01 08:14:33;;;;;;;;;;;;;;;32.22;46.26;99258.50;5035905;28;19967;-66
2022/07/01 08:17:02;;;;;;;;;;;;;;;32.23;46.67;99252.22;5036068;28;20314;-67
2022/07/01 08:19:30;;;;;;;;;;;;;;;32.27;45.55;99253.63;5035737;28;19925;-67
2022/07/01 08:21:59;;;;;;;;;;;;;;;32.20;44.96;99255.19;5035697;28;19971;-66
2022/07/01 08:24:28;;;;;;;;;;;;;;;32.17;45.08;99258.94;5035428;28;19925;-66
2022/07/01 08:26:56;;;;;;;;;;;;;;;32.18;44.85;99249.19;5035047;28;19967;-65
2022/07/01 08:29:26;;;;;;;;;;;;;;;32.19;44.74;99258.78;5035551;28;19921;-66
2022/07/01 08:31:55;;;;;;;;;;;;;;;32.26;45.03;99257.22;5034355;28;19947;-65
2022/07/01 08:34:23;;;;;;;;;;;;;;;32.33;45.29;99259.13;5033539;28;20458;-68
2022/07/01 08:36:52;;;;;;;;;;;;;;;32.25;44.95;99256.38;5043351;28;19959;-67
2022/07/01 08:39:22;;;;;;;;;;;;;;;32.44;46.15;99252.81;5035382;28;19921;-66
2022/07/01 08:41:50;;;;;;;;;;;;;;;32.55;45.06;99257.88;5035629;28;19921;-66
2022/07/01 08:44:20;;;;;;;;;;;;;;;32.77;44.65;99261.91;5028893;28;19921;-66
2022/07/01 08:46:52;;;;;;;;;;;;;;;32.88;44.47;99254.56;5028746;28;20429;-67
2022/07/01 08:49:22;;;;;;;;;;;;;;;32.91;44.18;99256.91;5017011;28;20056;-68
2022/07/01 08:51:50;;;;;;;;;;;;;;;32.70;43.93;99256.38;5024704;28;19921;-67
2022/07/01 08:54:19;;;;;;;;;;;;;;;32.67;43.88;99261.97;5024263;28;19922;-67
2022/07/01 08:56:47;;;;;;;;;;;;;;;32.80;43.34;99261.59;5015263;28;19927;-66
2022/07/01 08:59:22;;;;;;;;;;;;;;;32.70;43.90;99259.03;5015218;28;19992;-66
2022/07/01 09:01:58;;;;;;;;;;;;;;;32.72;44.21;99258.88;5015308;28;19922;-68
2022/07/01 09:04:27;;;;;;;;;;;;;;;32.98;44.40;99254.47;5025041;28;19921;-68
2022/07/01 09:07:01;;;;;;;;;;;;;;;33.34;43.24;99258.72;5031195;28;20379;-68
2022/07/01 09:09:34;;;;;;;;;;;;;;;33.33;42.96;99253.59;5034744;28;19928;-67
2022/07/01 09:12:03;;;;;;;;;;;;;;;33.36;43.27;99253.28;5028303;28;19928;-68
2022/07/01 09:14:32;;;;;;;;;;;;;;;33.45;42.66;99250.50;5015549;28;20419;-67
2022/07/01 09:17:04;;;;;;;;;;;;;;;33.20;42.39;99256.66;5014954;28;19921;-68
2022/07/01 09:19:34;;;;;;;;;;;;;;;32.81;42.92;99258.78;5015490;28;20291;-69
2022/07/01 09:22:04;;;;;;;;;;;;;;;32.49;43.74;99255.81;5024829;28;20410;-67
2022/07/01 09:24:33;;;;;;;;;;;;;;;32.33;44.27;99253.00;5033969;28;19960;-67
2022/07/01 09:27:06;;;;;;;;;;;;;;;32.16;44.81;99246.72;5023220;28;19921;-67
2022/07/01 09:29:35;;;;;;;;;;;;;;;32.12;44.44;99249.81;5034160;28;19925;-68
2022/07/01 09:32:06;;;;;;;;;;;;;;;32.25;44.57;99255.56;5034774;28;19987;-68
2022/07/01 09:34:35;;;;;;;;;;;;;;;32.23;43.72;99253.06;5033100;28;20387;-67
2022/07/01 09:37:04;;;;;;;;;;;;;;;32.48;44.23;99256.81;5033918;28;19928;-66
2022/07/01 09:39:42;;;;;;;;;;;;;;;32.89;42.71;99250.94;5032875;28;19921;-67
2022/07/01 09:42:11;;;;;;;;;;;;;;;33.13;42.12;99245.03;5022900;28;20334;-68
2022/07/01 09:44:52;;;;;;;;;;;;;;;33.27;41.74;99233.88;5034509;28;20329;-67
2022/07/01 09:47:28;;;;;;;;;;;;;;;33.58;41.77;99247.47;5034271;28;19928;-66
2022/07/01 09:49:56;;;;;;;;;;;;;;;33.65;41.13;99253.81;5034191;28;19921;-66
2022/07/01 09:52:25;;;;;;;;;;;;;;;33.65;41.10;99249.34;5030020;28;19921;-66
2022/07/01 09:54:54;;;;;;;;;;;;;;;33.72;40.98;99238.94;5022947;28;19932;-67
2022/07/01 09:57:22;;;;;;;;;;;;;;;33.77;40.96;99251.72;5031848;28;19921;-68
2022/07/01 09:59:52;;;;;;;;;;;;;;;33.78;40.94;99246.28;5034245;28;19920;-66
2022/07/01 10:02:20;;;;;;;;;;;;;;;33.92;40.70;99229.75;5034004;28;19959;-70
2022/07/01 10:04:52;;;;;;;;;;;;;;;34.04;40.81;99239.13;5033820;28;19928;-67
2022/07/01 10:07:28;;;;;;;;;;;;;;;34.11;41.09;99234.00;5033974;28;19921;-67
2022/07/01 10:10:03;;;;;;;;;;;;;;;34.27;41.02;99240.16;5034205;28;20260;-67
2022/07/01 10:12:37;;;;;;;;;;;;;;;34.28;39.40;99231.22;5034163;28;20382;-66
2022/07/01 10:15:08;;;;;;;;;;;;;;;34.20;39.42;99233.84;5032661;28;19967;-66
2022/07/01 10:17:37;;;;;;;;;;;;;;;34.28;39.39;99225.94;5034136;28;20012;-68
2022/07/01 10:20:11;;;;;;;;;;;;;;;34.28;39.83;99230.41;5033965;28;20015;-66
2022/07/01 10:22:41;;;;;;;;;;;;;;;34.38;40.36;99233.75;5033829;28;19979;-71
2022/07/01 10:25:21;;;;;;;;;;;;;;;34.44;39.29;99241.03;5033930;28;20383;-67
2022/07/01 10:28:04;;;;;;;;;;;;;;;34.41;39.02;99224.63;5032460;28;19927;-68
2022/07/01 10:30:33;;;;;;;;;;;;;;;34.45;39.11;99218.84;5033706;28;20011;-70
2022/07/01 10:33:02;;;;;;;;;;;;;;;34.60;39.52;99221.69;5033529;28;19956;-71
2022/07/01 10:35:38;;;;;;;;;;;;;;;34.55;38.94;99218.72;5031837;28;19995;-67
2022/07/01 10:38:12;;;;;;;;;;;;;;;34.67;38.73;99214.75;5025879;28;19995;-67
2022/07/01 10:40:46;;;;;;;;;;;;;;;34.63;38.54;99213.38;5018193;28;20375;-67
2022/07/01 10:43:16;;;;;;;;;;;;;;;34.48;37.89;99210.56;5013929;28;19945;-67
2022/07/01 10:45:54;;;;;;;;;;;;;;;34.42;38.04;99207.72;5013925;28;19921;-66
2022/07/01 10:48:23;;;;;;;;;;;;;;;34.54;39.01;99215.22;5014838;28;19922;-66
2022/07/01 10:50:54;;;;;;;;;;;;;;;34.76;38.65;99197.81;5017938;28;19922;-68
2022/07/01 10:53:23;;;;;;;;;;;;;;;34.88;37.87;99191.19;5025015;28;19920;-66
2022/07/01 10:55:52;;;;;;;;;;;;;;;34.97;37.91;99200.78;5033907;28;19947;-69
2022/07/01 10:58:36;;;;;;;;;;;;;;;34.81;38.00;99201.63;5034718;28;19921;-67
2022/07/01 11:01:05;;;;;;;;;;;;;;;34.82;38.07;99197.13;5036217;28;20109;-66
2022/07/01 11:03:36;;;;;;;;;;;;;;;35.03;37.57;99200.16;5034342;28;20016;-66
2022/07/01 11:06:07;;;;;;;;;;;;;;;35.17;37.00;99196.81;5036419;28;19921;-68
2022/07/01 11:08:37;;;;;;;;;;;;;;;35.19;36.85;99202.78;5035932;28;20030;-69
2022/07/01 11:11:06;;;;;;;;;;;;;;;35.20;37.28;99196.47;5035309;28;19927;-67
2022/07/01 11:13:35;;;;;;;;;;;;;;;35.27;37.19;99213.38;5036867;28;19924;-66
2022/07/01 11:16:04;;;;;;;;;;;;;;;35.17;37.45;99210.09;5036388;28;19921;-67
2022/07/01 11:18:33;;;;;;;;;;;;;;;35.26;37.38;99198.44;5036922;28;20294;-67
2022/07/01 11:21:07;;;;;;;;;;;;;;;35.37;37.30;99203.38;5035811;28;20318;-68
2022/07/01 11:23:36;;;;;;;;;;;;;;;35.47;36.60;99196.06;5029358;28;20024;-66
2022/07/01 11:26:19;;;;;;;;;;;;;;;35.43;36.17;99197.41;5029264;28;19928;-67
2022/07/01 11:28:48;;;;;;;;;;;;;;;35.34;36.22;99195.78;5036798;28;19971;-68
2022/07/01 11:31:16;;;;;;;;;;;;;;;35.33;37.32;99193.28;5036109;28;19928;-68
2022/07/01 11:33:49;;;;;;;;;;;;;;;35.30;37.70;99178.50;5036400;28;19921;-67
2022/07/01 11:41:38;;;;;;;;;;;;;;;35.61;36.66;99175.94;5036057;28;19956;-71
2022/07/01 11:44:09;;;;;;;;;;;;;;;35.46;37.09;99175.81;5034886;28;19928;-72
2022/07/01 11:46:38;;;;;;;;;;;;;;;35.36;36.91;99180.50;5031959;28;19923;-72
2022/07/01 11:49:12;;;;;;;;;;;;;;;35.46;37.05;99173.16;5032809;28;19920;-68
2022/07/01 11:51:42;;;;;;;;;;;;;;;35.54;37.04;99180.28;5033886;28;19964;-69
2022/07/01 11:54:20;;;;;;;;;;;;;;;35.55;36.63;99163.34;5035685;28;19924;-69
2022/07/01 11:56:50;;;;;;;;;;;;;;;35.54;36.92;99162.53;5035972;28;19928;-72
2022/07/01 11:59:20;;;;;;;;;;;;;;;35.44;36.72;99169.81;5034529;28;19921;-69
2022/07/01 12:01:53;;;;;;;;;;;;;;;35.29;36.69;99155.63;5035346;28;19921;-69
2022/07/01 12:04:22;;;;;;;;;;;;;;;35.39;36.54;99163.41;5036347;28;19932;-70
2022/07/01 12:06:52;;;;;;;;;;;;;;;35.49;35.45;99154.22;5036393;28;19967;-72
2022/07/01 12:09:21;;;;;;;;;;;;;;;35.54;34.92;99157.22;5036290;28;20413;-69
2022/07/01 12:11:51;;;;;;;;;;;;;;;35.53;35.43;99154.75;5033693;28;19921;-71
2022/07/01 12:14:21;;;;;;;;;;;;;;;35.49;35.71;99148.91;5034596;28;20426;-71
2022/07/01 12:16:52;;;;;;;;;;;;;;;35.53;35.18;99150.25;5029597;28;19956;-69
2022/07/01 12:19:20;;;;;;;;;;;;;;;35.56;34.81;99149.91;5020715;28;19929;-67
2022/07/01 12:21:50;;;;;;;;;;;;;;;35.57;34.61;99150.72;5015913;28;19929;-68
2022/07/01 12:24:29;;;;;;;;;;;;;;;35.61;34.93;99163.50;5029913;28;20377;-69
2022/07/01 12:27:05;;;;;;;;;;;;;;;35.71;34.75;99151.84;5035012;28;19975;-69
2022/07/01 12:29:49;;;;;;;;;;;;;;;35.71;34.31;99159.81;5035169;28;19928;-68
2022/07/01 12:32:19;;;;;;;;;;;;;;;35.50;33.92;99142.59;5034598;28;19928;-69
2022/07/01 12:34:48;;;;;;;;;;;;;;;35.23;34.52;99147.50;5034986;28;20078;-70
2022/07/01 12:37:17;;;;;;;;;;;;;;;34.98;35.53;99138.75;5035326;28;20007;-70
2022/07/01 12:39:50;;;;;;;;;;;;;;;35.13;35.88;99137.09;5034883;28;19921;-68
2022/07/01 12:42:22;;;;;;;;;;;;;;;35.30;35.41;99135.22;5003274;28;19925;-71
2022/07/01 12:44:51;;;;;;;;;;;;;;;35.35;35.26;99125.72;5015725;28;19921;-70
2022/07/01 12:47:26;;;;;;;;;;;;;;;35.39;35.12;99140.34;5015504;28;19921;-71
2022/07/01 12:50:06;;;;;;;;;;;;;;;35.44;35.43;99130.00;4999554;28;19976;-69
2022/07/01 12:52:35;;;;;;;;;;;;;;;35.53;35.08;99128.19;5034446;28;20382;-71
2022/07/01 12:55:15;;;;;;;;;;;;;;;35.56;34.26;99118.03;5028305;28;19967;-68
2022/07/01 12:57:43;;;;;;;;;;;;;;;35.58;34.81;99129.31;5017541;28;19932;-71
2022/07/01 13:00:12;;;;;;;;;;;;;;;35.54;34.77;99129.81;5034275;28;20458;-71
2022/07/01 13:02:41;;;;;;;;;;;;;;;35.48;34.28;99120.72;5028402;28;19967;-69
2022/07/01 13:05:10;;;;;;;;;;;;;;;35.54;34.36;99120.03;5034223;28;20363;-73
2022/07/01 13:07:39;;;;;;;;;;;;;;;35.58;33.90;99121.38;5035007;28;19975;-69
2022/07/01 13:10:14;;;;;;;;;;;;;;;35.56;34.06;99127.84;5034739;28;19932;-72
2022/07/01 13:12:44;;;;;;;;;;;;;;;35.58;34.44;99126.69;5034577;28;19948;-70